sensor_id;sensor_type;location;lat;lon;timestamp;temperature;humidity
78438;SHT31;67736;51.978;5.656;2023-02-12T00:01:53;11.6;63.2
78438;SHT31;67736;51.978;5.656;2023-02-12T00:04:23;11.6;63.3
78438;SHT31;67736;51.978;5.656;2023-02-12T00:06:52;11.6;63.2
78438;SHT31;67736;51.978;5.656;2023-02-12T00:09:22;11.7;63.0
78438;SHT31;67736;51.978;5.656;2023-02-12T00:11:52;11.7;63.1
78438;SHT31;67736;51.978;5.656;2023-02-12T00:14:22;11.7;63.2
78438;SHT31;67736;51.978;5.656;2023-02-12T00:16:51;11.7;63.1
78438;SHT31;67736;51.978;5.656;2023-02-12T00:19:21;11.7;63.0
78438;SHT31;67736;51.978;5.656;2023-02-12T00:21:51;11.7;63.0
78438;SHT31;67736;51.978;5.656;2023-02-12T00:24:21;11.7;63.0
78438;SHT31;67736;51.978;5.656;2023-02-12T00:26:50;11.7;63.2
78438;SHT31;67736;51.978;5.656;2023-02-12T00:29:20;11.7;63.0
78438;SHT31;67736;51.978;5.656;2023-02-12T00:31:50;11.7;62.9
78438;SHT31;67736;51.978;5.656;2023-02-12T00:34:19;11.7;62.9
78438;SHT31;67736;51.978;5.656;2023-02-12T00:36:51;11.7;62.8
78438;SHT31;67736;51.978;5.656;2023-02-12T00:39:20;11.7;62.5
78438;SHT31;67736;51.978;5.656;2023-02-12T00:41:50;11.7;62.2
78438;SHT31;67736;51.978;5.656;2023-02-12T00:44:20;11.7;61.9
78438;SHT31;67736;51.978;5.656;2023-02-12T00:46:49;11.7;61.7
78438;SHT31;67736;51.978;5.656;2023-02-12T00:49:19;11.7;61.9
78438;SHT31;67736;51.978;5.656;2023-02-12T00:51:49;11.7;61.9
78438;SHT31;67736;51.978;5.656;2023-02-12T00:54:18;11.7;62.1
78438;SHT31;67736;51.978;5.656;2023-02-12T00:56:48;11.7;61.9
78438;SHT31;67736;51.978;5.656;2023-02-12T00:59:18;11.6;62.3
78438;SHT31;67736;51.978;5.656;2023-02-12T01:01:48;11.6;62.2
78438;SHT31;67736;51.978;5.656;2023-02-12T01:04:20;11.6;62.2
78438;SHT31;67736;51.978;5.656;2023-02-12T01:06:50;11.6;62.2
78438;SHT31;67736;51.978;5.656;2023-02-12T01:09:22;11.6;62.2
78438;SHT31;67736;51.978;5.656;2023-02-12T01:11:52;11.6;61.9
78438;SHT31;67736;51.978;5.656;2023-02-12T01:14:23;11.6;62.3
78438;SHT31;67736;51.978;5.656;2023-02-12T01:16:53;11.6;61.9
78438;SHT31;67736;51.978;5.656;2023-02-12T01:19:23;11.6;62.0
78438;SHT31;67736;51.978;5.656;2023-02-12T01:21:52;11.6;62.1
78438;SHT31;67736;51.978;5.656;2023-02-12T01:24:22;11.6;61.8
78438;SHT31;67736;51.978;5.656;2023-02-12T01:26:52;11.6;61.9
78438;SHT31;67736;51.978;5.656;2023-02-12T01:29:23;11.6;61.8
78438;SHT31;67736;51.978;5.656;2023-02-12T01:31:53;11.6;61.6
78438;SHT31;67736;51.978;5.656;2023-02-12T01:34:22;11.6;61.5
78438;SHT31;67736;51.978;5.656;2023-02-12T01:36:52;11.5;61.4
78438;SHT31;67736;51.978;5.656;2023-02-12T01:39:22;11.5;61.2
78438;SHT31;67736;51.978;5.656;2023-02-12T01:41:51;11.5;61.4
78438;SHT31;67736;51.978;5.656;2023-02-12T01:44:23;11.5;61.4
78438;SHT31;67736;51.978;5.656;2023-02-12T01:46:57;11.5;61.2
78438;SHT31;67736;51.978;5.656;2023-02-12T01:49:31;11.5;61.1
78438;SHT31;67736;51.978;5.656;2023-02-12T01:52:07;11.5;61.1
78438;SHT31;67736;51.978;5.656;2023-02-12T01:54:41;11.4;60.8
78438;SHT31;67736;51.978;5.656;2023-02-12T01:57:13;11.4;60.8
78438;SHT31;67736;51.978;5.656;2023-02-12T01:59:47;11.4;60.9
78438;SHT31;67736;51.978;5.656;2023-02-12T02:02:19;11.4;60.8
78438;SHT31;67736;51.978;5.656;2023-02-12T02:04:53;11.3;61.0
78438;SHT31;67736;51.978;5.656;2023-02-12T02:07:26;11.3;61.1
78438;SHT31;67736;51.978;5.656;2023-02-12T02:09:57;11.2;61.1
78438;SHT31;67736;51.978;5.656;2023-02-12T02:12:27;11.2;61.2
78438;SHT31;67736;51.978;5.656;2023-02-12T02:15:13;11.2;61.4
78438;SHT31;67736;51.978;5.656;2023-02-12T02:17:50;11.1;61.6
78438;SHT31;67736;51.978;5.656;2023-02-12T02:21:02;11.1;61.6
78438;SHT31;67736;51.978;5.656;2023-02-12T02:23:47;11.1;61.8
78438;SHT31;67736;51.978;5.656;2023-02-12T02:26:42;11.0;62.0
78438;SHT31;67736;51.978;5.656;2023-02-12T02:29:25;11.0;62.1
78438;SHT31;67736;51.978;5.656;2023-02-12T02:32:03;11.0;62.3
78438;SHT31;67736;51.978;5.656;2023-02-12T02:34:40;10.9;62.4
78438;SHT31;67736;51.978;5.656;2023-02-12T02:37:16;10.9;62.5
78438;SHT31;67736;51.978;5.656;2023-02-12T02:39:52;10.9;62.5
78438;SHT31;67736;51.978;5.656;2023-02-12T02:42:28;10.9;62.7
78438;SHT31;67736;51.978;5.656;2023-02-12T02:45:07;10.9;62.6
78438;SHT31;67736;51.978;5.656;2023-02-12T02:47:44;10.9;62.8
78438;SHT31;67736;51.978;5.656;2023-02-12T02:50:19;10.8;62.8
78438;SHT31;67736;51.978;5.656;2023-02-12T02:52:55;10.8;62.9
78438;SHT31;67736;51.978;5.656;2023-02-12T02:55:31;10.8;63.1
78438;SHT31;67736;51.978;5.656;2023-02-12T02:58:06;10.8;63.2
78438;SHT31;67736;51.978;5.656;2023-02-12T03:00:43;10.8;63.3
78438;SHT31;67736;51.978;5.656;2023-02-12T03:03:21;10.8;63.3
78438;SHT31;67736;51.978;5.656;2023-02-12T03:05:55;10.8;63.5
78438;SHT31;67736;51.978;5.656;2023-02-12T03:08:33;10.8;63.5
78438;SHT31;67736;51.978;5.656;2023-02-12T03:11:10;10.8;63.5
78438;SHT31;67736;51.978;5.656;2023-02-12T03:13:46;10.8;63.4
78438;SHT31;67736;51.978;5.656;2023-02-12T03:16:22;10.8;63.6
78438;SHT31;67736;51.978;5.656;2023-02-12T03:19:00;10.8;63.6
78438;SHT31;67736;51.978;5.656;2023-02-12T03:21:34;10.8;63.7
78438;SHT31;67736;51.978;5.656;2023-02-12T03:24:10;10.8;63.8
78438;SHT31;67736;51.978;5.656;2023-02-12T03:26:50;10.8;63.7
78438;SHT31;67736;51.978;5.656;2023-02-12T03:29:22;10.8;63.9
78438;SHT31;67736;51.978;5.656;2023-02-12T03:32:06;10.8;64.0
78438;SHT31;67736;51.978;5.656;2023-02-12T03:34:49;10.8;63.8
78438;SHT31;67736;51.978;5.656;2023-02-12T03:37:26;10.8;64.0
78438;SHT31;67736;51.978;5.656;2023-02-12T03:40:06;10.8;63.9
78438;SHT31;67736;51.978;5.656;2023-02-12T03:42:45;10.8;63.2
78438;SHT31;67736;51.978;5.656;2023-02-12T03:45:27;10.9;63.2
78438;SHT31;67736;51.978;5.656;2023-02-12T03:48:05;10.9;62.9
78438;SHT31;67736;51.978;5.656;2023-02-12T03:50:43;10.8;63.3
78438;SHT31;67736;51.978;5.656;2023-02-12T03:53:14;10.8;63.7
78438;SHT31;67736;51.978;5.656;2023-02-12T03:55:47;10.9;63.7
78438;SHT31;67736;51.978;5.656;2023-02-12T03:58:22;10.9;63.4
78438;SHT31;67736;51.978;5.656;2023-02-12T04:00:54;10.9;63.5
78438;SHT31;67736;51.978;5.656;2023-02-12T04:03:25;10.9;63.3
78438;SHT31;67736;51.978;5.656;2023-02-12T04:05:55;10.9;63.4
78438;SHT31;67736;51.978;5.656;2023-02-12T04:08:26;10.9;63.4
78438;SHT31;67736;51.978;5.656;2023-02-12T04:11:06;10.9;63.5
78438;SHT31;67736;51.978;5.656;2023-02-12T04:13:45;10.9;63.4
78438;SHT31;67736;51.978;5.656;2023-02-12T04:16:25;10.9;62.8
78438;SHT31;67736;51.978;5.656;2023-02-12T04:18:57;10.9;62.9
78438;SHT31;67736;51.978;5.656;2023-02-12T04:21:41;10.9;62.8
78438;SHT31;67736;51.978;5.656;2023-02-12T04:24:18;10.9;62.8
78438;SHT31;67736;51.978;5.656;2023-02-12T04:26:56;10.9;63.3
78438;SHT31;67736;51.978;5.656;2023-02-12T04:29:34;10.9;63.0
78438;SHT31;67736;51.978;5.656;2023-02-12T04:32:14;10.9;62.6
78438;SHT31;67736;51.978;5.656;2023-02-12T04:34:51;10.9;62.7
78438;SHT31;67736;51.978;5.656;2023-02-12T04:37:26;10.9;63.1
78438;SHT31;67736;51.978;5.656;2023-02-12T04:40:02;10.9;63.3
78438;SHT31;67736;51.978;5.656;2023-02-12T04:42:39;11.0;63.2
78438;SHT31;67736;51.978;5.656;2023-02-12T04:45:10;11.0;63.4
78438;SHT31;67736;51.978;5.656;2023-02-12T04:47:41;11.0;63.7
78438;SHT31;67736;51.978;5.656;2023-02-12T04:50:11;11.0;63.1
78438;SHT31;67736;51.978;5.656;2023-02-12T04:52:41;11.0;63.4
78438;SHT31;67736;51.978;5.656;2023-02-12T04:55:10;11.0;63.2
78438;SHT31;67736;51.978;5.656;2023-02-12T04:57:42;11.0;63.0
78438;SHT31;67736;51.978;5.656;2023-02-12T05:00:13;11.0;63.4
78438;SHT31;67736;51.978;5.656;2023-02-12T05:02:45;11.0;63.5
78438;SHT31;67736;51.978;5.656;2023-02-12T05:05:15;11.0;63.6
78438;SHT31;67736;51.978;5.656;2023-02-12T05:07:44;11.0;63.4
78438;SHT31;67736;51.978;5.656;2023-02-12T05:10:16;11.0;63.5
78438;SHT31;67736;51.978;5.656;2023-02-12T05:12:46;11.0;63.6
78438;SHT31;67736;51.978;5.656;2023-02-12T05:15:16;11.0;63.3
78438;SHT31;67736;51.978;5.656;2023-02-12T05:17:46;11.1;63.3
78438;SHT31;67736;51.978;5.656;2023-02-12T05:20:16;11.1;63.5
78438;SHT31;67736;51.978;5.656;2023-02-12T05:22:52;11.1;63.4
78438;SHT31;67736;51.978;5.656;2023-02-12T05:25:22;11.1;63.5
78438;SHT31;67736;51.978;5.656;2023-02-12T05:27:52;11.1;63.5
78438;SHT31;67736;51.978;5.656;2023-02-12T05:30:23;11.1;63.5
78438;SHT31;67736;51.978;5.656;2023-02-12T05:32:52;11.1;63.5
78438;SHT31;67736;51.978;5.656;2023-02-12T05:35:24;11.1;63.6
78438;SHT31;67736;51.978;5.656;2023-02-12T05:37:53;11.1;63.3
78438;SHT31;67736;51.978;5.656;2023-02-12T05:40:23;11.1;63.3
78438;SHT31;67736;51.978;5.656;2023-02-12T05:42:53;11.1;63.2
78438;SHT31;67736;51.978;5.656;2023-02-12T05:45:22;11.1;63.4
78438;SHT31;67736;51.978;5.656;2023-02-12T05:47:55;11.1;63.4
78438;SHT31;67736;51.978;5.656;2023-02-12T05:50:24;11.1;63.3
78438;SHT31;67736;51.978;5.656;2023-02-12T05:52:54;11.1;63.6
78438;SHT31;67736;51.978;5.656;2023-02-12T05:55:23;11.1;63.4
78438;SHT31;67736;51.978;5.656;2023-02-12T05:57:53;11.1;63.3
78438;SHT31;67736;51.978;5.656;2023-02-12T06:00:23;11.1;63.3
78438;SHT31;67736;51.978;5.656;2023-02-12T06:02:53;11.1;63.1
78438;SHT31;67736;51.978;5.656;2023-02-12T06:05:23;11.1;62.9
78438;SHT31;67736;51.978;5.656;2023-02-12T06:07:52;11.1;63.2
78438;SHT31;67736;51.978;5.656;2023-02-12T06:10:22;11.1;63.2
78438;SHT31;67736;51.978;5.656;2023-02-12T06:12:54;11.1;63.1
78438;SHT31;67736;51.978;5.656;2023-02-12T06:15:24;11.1;63.2
78438;SHT31;67736;51.978;5.656;2023-02-12T06:17:53;11.1;63.4
78438;SHT31;67736;51.978;5.656;2023-02-12T06:20:23;11.1;63.3
78438;SHT31;67736;51.978;5.656;2023-02-12T06:22:53;11.0;63.0
78438;SHT31;67736;51.978;5.656;2023-02-12T06:25:24;11.0;63.0
78438;SHT31;67736;51.978;5.656;2023-02-12T06:27:54;11.0;63.2
78438;SHT31;67736;51.978;5.656;2023-02-12T06:30:23;11.0;63.2
78438;SHT31;67736;51.978;5.656;2023-02-12T06:32:53;11.0;63.2
78438;SHT31;67736;51.978;5.656;2023-02-12T06:35:23;11.0;63.3
78438;SHT31;67736;51.978;5.656;2023-02-12T06:37:52;11.0;63.5
78438;SHT31;67736;51.978;5.656;2023-02-12T06:40:22;11.0;63.6
78438;SHT31;67736;51.978;5.656;2023-02-12T06:42:52;11.0;63.5
78438;SHT31;67736;51.978;5.656;2023-02-12T06:45:22;11.0;63.8
78438;SHT31;67736;51.978;5.656;2023-02-12T06:47:51;11.0;63.6
78438;SHT31;67736;51.978;5.656;2023-02-12T06:50:21;11.0;63.5
78438;SHT31;67736;51.978;5.656;2023-02-12T06:52:51;11.0;63.2
78438;SHT31;67736;51.978;5.656;2023-02-12T06:55:20;11.0;63.5
78438;SHT31;67736;51.978;5.656;2023-02-12T06:57:50;11.0;63.6
78438;SHT31;67736;51.978;5.656;2023-02-12T07:00:20;11.0;63.6
78438;SHT31;67736;51.978;5.656;2023-02-12T07:02:54;11.0;63.8
78438;SHT31;67736;51.978;5.656;2023-02-12T07:05:24;11.0;63.6
78438;SHT31;67736;51.978;5.656;2023-02-12T07:07:54;11.0;63.7
78438;SHT31;67736;51.978;5.656;2023-02-12T07:10:25;11.0;63.8
78438;SHT31;67736;51.978;5.656;2023-02-12T07:12:55;11.0;63.6
78438;SHT31;67736;51.978;5.656;2023-02-12T07:15:25;11.1;63.7
78438;SHT31;67736;51.978;5.656;2023-02-12T07:17:54;11.1;63.5
78438;SHT31;67736;51.978;5.656;2023-02-12T07:20:24;11.1;63.3
78438;SHT31;67736;51.978;5.656;2023-02-12T07:22:54;11.1;63.7
78438;SHT31;67736;51.978;5.656;2023-02-12T07:25:23;11.1;63.2
78438;SHT31;67736;51.978;5.656;2023-02-12T07:27:53;11.1;63.3
78438;SHT31;67736;51.978;5.656;2023-02-12T07:30:23;11.1;63.7
78438;SHT31;67736;51.978;5.656;2023-02-12T07:32:52;11.1;63.6
78438;SHT31;67736;51.978;5.656;2023-02-12T07:35:22;11.1;63.6
78438;SHT31;67736;51.978;5.656;2023-02-12T07:37:51;11.1;63.5
78438;SHT31;67736;51.978;5.656;2023-02-12T07:40:21;11.1;63.3
78438;SHT31;67736;51.978;5.656;2023-02-12T07:42:53;11.1;62.8
78438;SHT31;67736;51.978;5.656;2023-02-12T07:45:23;11.1;62.4
78438;SHT31;67736;51.978;5.656;2023-02-12T07:47:52;11.1;62.5
78438;SHT31;67736;51.978;5.656;2023-02-12T07:50:24;11.1;62.2
78438;SHT31;67736;51.978;5.656;2023-02-12T07:52:54;11.1;61.7
78438;SHT31;67736;51.978;5.656;2023-02-12T07:55:23;11.2;61.6
78438;SHT31;67736;51.978;5.656;2023-02-12T07:57:53;11.2;61.5
78438;SHT31;67736;51.978;5.656;2023-02-12T08:00:23;11.2;61.4
78438;SHT31;67736;51.978;5.656;2023-02-12T08:02:53;11.2;61.4
78438;SHT31;67736;51.978;5.656;2023-02-12T08:05:22;11.2;61.4
78438;SHT31;67736;51.978;5.656;2023-02-12T08:07:52;11.2;61.4
78438;SHT31;67736;51.978;5.656;2023-02-12T08:10:22;11.2;61.5
78438;SHT31;67736;51.978;5.656;2023-02-12T08:12:51;11.2;61.3
78438;SHT31;67736;51.978;5.656;2023-02-12T08:15:21;11.2;61.5
78438;SHT31;67736;51.978;5.656;2023-02-12T08:17:50;11.2;61.0
78438;SHT31;67736;51.978;5.656;2023-02-12T08:20:21;11.2;61.5
78438;SHT31;67736;51.978;5.656;2023-02-12T08:22:51;11.3;61.6
78438;SHT31;67736;51.978;5.656;2023-02-12T08:25:21;11.3;61.8
78438;SHT31;67736;51.978;5.656;2023-02-12T08:27:50;11.3;61.0
78438;SHT31;67736;51.978;5.656;2023-02-12T08:30:20;11.3;61.2
78438;SHT31;67736;51.978;5.656;2023-02-12T08:32:50;11.3;61.0
78438;SHT31;67736;51.978;5.656;2023-02-12T08:35:20;11.3;60.7
78438;SHT31;67736;51.978;5.656;2023-02-12T08:37:50;11.4;60.4
78438;SHT31;67736;51.978;5.656;2023-02-12T08:40:20;11.4;60.4
78438;SHT31;67736;51.978;5.656;2023-02-12T08:42:51;11.4;60.3
78438;SHT31;67736;51.978;5.656;2023-02-12T08:45:21;11.4;60.2
78438;SHT31;67736;51.978;5.656;2023-02-12T08:47:50;11.4;59.6
78438;SHT31;67736;51.978;5.656;2023-02-12T08:50:21;11.4;59.7
78438;SHT31;67736;51.978;5.656;2023-02-12T08:52:51;11.4;60.0
78438;SHT31;67736;51.978;5.656;2023-02-12T08:55:20;11.4;60.1
78438;SHT31;67736;51.978;5.656;2023-02-12T08:57:50;11.4;60.2
78438;SHT31;67736;51.978;5.656;2023-02-12T09:00:24;11.5;60.2
78438;SHT31;67736;51.978;5.656;2023-02-12T09:02:54;11.5;60.2
78438;SHT31;67736;51.978;5.656;2023-02-12T09:05:23;11.5;59.6
78438;SHT31;67736;51.978;5.656;2023-02-12T09:07:55;11.5;59.5
78438;SHT31;67736;51.978;5.656;2023-02-12T09:10:25;11.5;59.2
78438;SHT31;67736;51.978;5.656;2023-02-12T09:12:54;11.5;59.3
78438;SHT31;67736;51.978;5.656;2023-02-12T09:15:24;11.5;59.5
78438;SHT31;67736;51.978;5.656;2023-02-12T09:17:54;11.5;59.5
78438;SHT31;67736;51.978;5.656;2023-02-12T09:20:24;11.6;59.2
78438;SHT31;67736;51.978;5.656;2023-02-12T09:22:53;11.6;59.3
78438;SHT31;67736;51.978;5.656;2023-02-12T09:25:23;11.6;59.0
78438;SHT31;67736;51.978;5.656;2023-02-12T09:27:55;11.6;59.3
78438;SHT31;67736;51.978;5.656;2023-02-12T09:30:25;11.6;59.2
78438;SHT31;67736;51.978;5.656;2023-02-12T09:32:56;11.6;59.5
78438;SHT31;67736;51.978;5.656;2023-02-12T09:35:25;11.6;59.5
78438;SHT31;67736;51.978;5.656;2023-02-12T09:37:55;11.6;59.5
78438;SHT31;67736;51.978;5.656;2023-02-12T09:40:35;11.6;59.8
78438;SHT31;67736;51.978;5.656;2023-02-12T09:43:15;11.6;59.5
78438;SHT31;67736;51.978;5.656;2023-02-12T09:45:50;11.6;59.1
78438;SHT31;67736;51.978;5.656;2023-02-12T09:48:34;11.6;59.0
78438;SHT31;67736;51.978;5.656;2023-02-12T09:51:08;11.6;59.2
78438;SHT31;67736;51.978;5.656;2023-02-12T09:53:42;11.6;59.2
78438;SHT31;67736;51.978;5.656;2023-02-12T09:56:16;11.6;59.0
78438;SHT31;67736;51.978;5.656;2023-02-12T09:58:51;11.6;58.9
78438;SHT31;67736;51.978;5.656;2023-02-12T10:01:21;11.7;59.0
78438;SHT31;67736;51.978;5.656;2023-02-12T10:03:52;11.7;59.2
78438;SHT31;67736;51.978;5.656;2023-02-12T10:06:25;11.7;59.5
78438;SHT31;67736;51.978;5.656;2023-02-12T10:09:27;11.7;59.3
78438;SHT31;67736;51.978;5.656;2023-02-12T10:12:06;11.7;59.1
78438;SHT31;67736;51.978;5.656;2023-02-12T10:15:19;11.7;59.3
78438;SHT31;67736;51.978;5.656;2023-02-12T10:18:01;11.7;58.9
78438;SHT31;67736;51.978;5.656;2023-02-12T10:21:03;11.8;59.0
78438;SHT31;67736;51.978;5.656;2023-02-12T10:24:04;11.8;59.1
78438;SHT31;67736;51.978;5.656;2023-02-12T10:26:41;11.8;58.8
78438;SHT31;67736;51.978;5.656;2023-02-12T10:29:16;11.8;58.7
78438;SHT31;67736;51.978;5.656;2023-02-12T10:31:51;11.8;66.0
78438;SHT31;67736;51.978;5.656;2023-02-12T10:34:24;11.9;64.5
78438;SHT31;67736;51.978;5.656;2023-02-12T10:37:00;11.9;66.9
78438;SHT31;67736;51.978;5.656;2023-02-12T10:39:36;12.0;59.4
78438;SHT31;67736;51.978;5.656;2023-02-12T10:42:13;12.1;58.8
78438;SHT31;67736;51.978;5.656;2023-02-12T10:44:45;12.1;58.4
78438;SHT31;67736;51.978;5.656;2023-02-12T10:47:19;12.2;58.0
78438;SHT31;67736;51.978;5.656;2023-02-12T10:49:57;12.2;57.3
78438;SHT31;67736;51.978;5.656;2023-02-12T10:52:38;12.2;57.2
78438;SHT31;67736;51.978;5.656;2023-02-12T10:55:24;12.2;57.1
78438;SHT31;67736;51.978;5.656;2023-02-12T10:57:56;12.2;57.2
78438;SHT31;67736;51.978;5.656;2023-02-12T11:00:30;12.2;57.4
78438;SHT31;67736;51.978;5.656;2023-02-12T11:03:04;12.2;57.2
78438;SHT31;67736;51.978;5.656;2023-02-12T11:05:37;12.1;57.4
78438;SHT31;67736;51.978;5.656;2023-02-12T11:08:27;12.1;57.4
78438;SHT31;67736;51.978;5.656;2023-02-12T11:11:02;12.1;57.9
78438;SHT31;67736;51.978;5.656;2023-02-12T11:13:33;12.1;58.0
78438;SHT31;67736;51.978;5.656;2023-02-12T11:16:04;12.1;58.0
78438;SHT31;67736;51.978;5.656;2023-02-12T11:18:34;12.1;58.0
78438;SHT31;67736;51.978;5.656;2023-02-12T11:21:06;12.1;57.9
78438;SHT31;67736;51.978;5.656;2023-02-12T11:23:38;12.2;57.9
78438;SHT31;67736;51.978;5.656;2023-02-12T11:26:24;12.2;57.5
78438;SHT31;67736;51.978;5.656;2023-02-12T11:28:56;12.2;57.4
78438;SHT31;67736;51.978;5.656;2023-02-12T11:31:27;12.2;57.2
78438;SHT31;67736;51.978;5.656;2023-02-12T11:34:14;12.3;56.7
78438;SHT31;67736;51.978;5.656;2023-02-12T11:36:48;12.3;56.5
78438;SHT31;67736;51.978;5.656;2023-02-12T11:39:22;12.3;56.0
78438;SHT31;67736;51.978;5.656;2023-02-12T11:41:55;12.3;56.0
78438;SHT31;67736;51.978;5.656;2023-02-12T11:44:28;12.3;56.0
78438;SHT31;67736;51.978;5.656;2023-02-12T11:47:01;12.3;55.5
78438;SHT31;67736;51.978;5.656;2023-02-12T11:49:38;12.4;55.9
78438;SHT31;67736;51.978;5.656;2023-02-12T11:52:18;12.4;56.2
78438;SHT31;67736;51.978;5.656;2023-02-12T11:54:50;12.4;55.7
78438;SHT31;67736;51.978;5.656;2023-02-12T11:57:38;12.4;55.5
78438;SHT31;67736;51.978;5.656;2023-02-12T12:00:22;12.4;55.6
78438;SHT31;67736;51.978;5.656;2023-02-12T12:02:59;12.4;55.7
78438;SHT31;67736;51.978;5.656;2023-02-12T12:05:35;12.5;55.7
78438;SHT31;67736;51.978;5.656;2023-02-12T12:08:14;12.5;55.2
78438;SHT31;67736;51.978;5.656;2023-02-12T12:10:53;12.5;55.3
78438;SHT31;67736;51.978;5.656;2023-02-12T12:13:31;12.5;55.5
78438;SHT31;67736;51.978;5.656;2023-02-12T12:16:09;12.6;55.1
78438;SHT31;67736;51.978;5.656;2023-02-12T12:19:01;12.6;54.6
78438;SHT31;67736;51.978;5.656;2023-02-12T12:21:58;12.6;54.9
78438;SHT31;67736;51.978;5.656;2023-02-12T12:24:41;12.6;55.1
78438;SHT31;67736;51.978;5.656;2023-02-12T12:27:18;12.6;54.2
78438;SHT31;67736;51.978;5.656;2023-02-12T12:30:40;12.6;54.8
78438;SHT31;67736;51.978;5.656;2023-02-12T12:33:18;12.6;54.6
78438;SHT31;67736;51.978;5.656;2023-02-12T12:36:02;12.6;54.8
78438;SHT31;67736;51.978;5.656;2023-02-12T12:38:42;12.6;54.7
78438;SHT31;67736;51.978;5.656;2023-02-12T12:41:23;12.6;55.0
78438;SHT31;67736;51.978;5.656;2023-02-12T12:44:08;12.6;54.4
78438;SHT31;67736;51.978;5.656;2023-02-12T12:46:47;12.6;54.7
78438;SHT31;67736;51.978;5.656;2023-02-12T12:49:36;12.6;55.0
78438;SHT31;67736;51.978;5.656;2023-02-12T12:52:30;12.6;55.0
78438;SHT31;67736;51.978;5.656;2023-02-12T12:55:26;12.7;54.6
78438;SHT31;67736;51.978;5.656;2023-02-12T12:58:07;12.7;54.8
78438;SHT31;67736;51.978;5.656;2023-02-12T13:00:45;12.7;54.6
78438;SHT31;67736;51.978;5.656;2023-02-12T13:03:51;12.7;54.8
78438;SHT31;67736;51.978;5.656;2023-02-12T13:06:53;12.7;53.5
78438;SHT31;67736;51.978;5.656;2023-02-12T13:09:48;12.7;54.5
78438;SHT31;67736;51.978;5.656;2023-02-12T13:12:41;12.7;53.8
78438;SHT31;67736;51.978;5.656;2023-02-12T13:15:23;12.7;54.8
78438;SHT31;67736;51.978;5.656;2023-02-12T13:18:01;12.7;54.0
78438;SHT31;67736;51.978;5.656;2023-02-12T13:20:39;12.8;53.8
78438;SHT31;67736;51.978;5.656;2023-02-12T13:23:14;12.8;54.1
78438;SHT31;67736;51.978;5.656;2023-02-12T13:25:51;12.8;53.8
78438;SHT31;67736;51.978;5.656;2023-02-12T13:28:33;12.8;53.8
78438;SHT31;67736;51.978;5.656;2023-02-12T13:31:08;12.7;53.9
78438;SHT31;67736;51.978;5.656;2023-02-12T13:33:43;12.7;52.6
78438;SHT31;67736;51.978;5.656;2023-02-12T13:36:15;12.7;53.7
78438;SHT31;67736;51.978;5.656;2023-02-12T13:38:49;12.7;53.4
78438;SHT31;67736;51.978;5.656;2023-02-12T13:41:21;12.7;53.2
78438;SHT31;67736;51.978;5.656;2023-02-12T13:44:00;12.7;53.2
78438;SHT31;67736;51.978;5.656;2023-02-12T13:46:39;12.6;53.2
78438;SHT31;67736;51.978;5.656;2023-02-12T13:49:21;12.6;53.3
78438;SHT31;67736;51.978;5.656;2023-02-12T13:52:01;12.6;53.2
78438;SHT31;67736;51.978;5.656;2023-02-12T13:54:51;12.6;53.5
78438;SHT31;67736;51.978;5.656;2023-02-12T13:57:23;12.6;53.8
78438;SHT31;67736;51.978;5.656;2023-02-12T13:59:53;12.5;53.9
78438;SHT31;67736;51.978;5.656;2023-02-12T14:03:24;12.5;54.1
78438;SHT31;67736;51.978;5.656;2023-02-12T14:06:13;12.5;53.8
78438;SHT31;67736;51.978;5.656;2023-02-12T14:08:47;12.6;54.0
78438;SHT31;67736;51.978;5.656;2023-02-12T14:11:20;12.6;53.7
78438;SHT31;67736;51.978;5.656;2023-02-12T14:13:55;12.6;53.6
78438;SHT31;67736;51.978;5.656;2023-02-12T14:16:39;12.6;53.8
78438;SHT31;67736;51.978;5.656;2023-02-12T14:19:38;12.6;54.5
78438;SHT31;67736;51.978;5.656;2023-02-12T14:22:12;12.7;54.0
78438;SHT31;67736;51.978;5.656;2023-02-12T14:24:51;12.7;54.2
78438;SHT31;67736;51.978;5.656;2023-02-12T14:27:44;12.7;53.7
78438;SHT31;67736;51.978;5.656;2023-02-12T14:30:34;12.8;53.3
78438;SHT31;67736;51.978;5.656;2023-02-12T14:33:19;12.8;53.4
78438;SHT31;67736;51.978;5.656;2023-02-12T14:39:01;12.8;53.5
78438;SHT31;67736;51.978;5.656;2023-02-12T14:41:36;12.8;53.1
78438;SHT31;67736;51.978;5.656;2023-02-12T14:45:28;12.8;52.0
78438;SHT31;67736;51.978;5.656;2023-02-12T14:47:59;12.8;52.5
78438;SHT31;67736;51.978;5.656;2023-02-12T14:50:45;12.8;52.6
78438;SHT31;67736;51.978;5.656;2023-02-12T14:53:25;12.8;52.8
78438;SHT31;67736;51.978;5.656;2023-02-12T14:55:57;12.8;52.9
78438;SHT31;67736;51.978;5.656;2023-02-12T14:58:28;12.8;52.5
78438;SHT31;67736;51.978;5.656;2023-02-12T15:01:01;12.8;52.6
78438;SHT31;67736;51.978;5.656;2023-02-12T15:03:39;12.8;52.3
78438;SHT31;67736;51.978;5.656;2023-02-12T15:06:13;12.8;52.9
78438;SHT31;67736;51.978;5.656;2023-02-12T15:08:49;12.8;53.4
78438;SHT31;67736;51.978;5.656;2023-02-12T15:11:38;12.8;52.8
78438;SHT31;67736;51.978;5.656;2023-02-12T15:14:14;12.8;52.7
78438;SHT31;67736;51.978;5.656;2023-02-12T15:16:53;12.7;53.3
78438;SHT31;67736;51.978;5.656;2023-02-12T15:19:38;12.7;52.8
78438;SHT31;67736;51.978;5.656;2023-02-12T15:22:18;12.7;53.0
78438;SHT31;67736;51.978;5.656;2023-02-12T15:24:49;12.7;53.0
78438;SHT31;67736;51.978;5.656;2023-02-12T15:27:20;12.7;53.0
78438;SHT31;67736;51.978;5.656;2023-02-12T15:29:52;12.7;52.4
78438;SHT31;67736;51.978;5.656;2023-02-12T15:32:25;12.7;52.5
78438;SHT31;67736;51.978;5.656;2023-02-12T15:34:56;12.7;52.3
78438;SHT31;67736;51.978;5.656;2023-02-12T15:37:29;12.7;52.9
78438;SHT31;67736;51.978;5.656;2023-02-12T15:40:01;12.7;52.8
78438;SHT31;67736;51.978;5.656;2023-02-12T15:42:35;12.7;52.1
78438;SHT31;67736;51.978;5.656;2023-02-12T15:45:20;12.7;51.6
78438;SHT31;67736;51.978;5.656;2023-02-12T15:48:36;12.6;51.7
78438;SHT31;67736;51.978;5.656;2023-02-12T15:51:16;12.6;52.7
78438;SHT31;67736;51.978;5.656;2023-02-12T15:53:48;12.6;52.9
78438;SHT31;67736;51.978;5.656;2023-02-12T15:56:22;12.5;53.2
78438;SHT31;67736;51.978;5.656;2023-02-12T15:58:53;12.5;52.8
78438;SHT31;67736;51.978;5.656;2023-02-12T16:01:26;12.5;53.2
78438;SHT31;67736;51.978;5.656;2023-02-12T16:03:59;12.6;53.4
78438;SHT31;67736;51.978;5.656;2023-02-12T16:06:32;12.6;53.5
78438;SHT31;67736;51.978;5.656;2023-02-12T16:09:06;12.6;52.9
78438;SHT31;67736;51.978;5.656;2023-02-12T16:11:37;12.6;52.6
78438;SHT31;67736;51.978;5.656;2023-02-12T16:14:17;12.6;51.8
78438;SHT31;67736;51.978;5.656;2023-02-12T16:16:50;12.6;52.2
78438;SHT31;67736;51.978;5.656;2023-02-12T16:19:23;12.6;52.4
78438;SHT31;67736;51.978;5.656;2023-02-12T16:21:58;12.6;52.8
78438;SHT31;67736;51.978;5.656;2023-02-12T16:24:33;12.5;52.8
78438;SHT31;67736;51.978;5.656;2023-02-12T16:27:07;12.5;53.5
78438;SHT31;67736;51.978;5.656;2023-02-12T16:29:46;12.5;53.2
78438;SHT31;67736;51.978;5.656;2023-02-12T16:32:34;12.5;53.3
78438;SHT31;67736;51.978;5.656;2023-02-12T16:35:21;12.5;52.9
78438;SHT31;67736;51.978;5.656;2023-02-12T16:37:44;12.4;53.1
78438;SHT31;67736;51.978;5.656;2023-02-12T16:40:23;12.4;53.1
78438;SHT31;67736;51.978;5.656;2023-02-12T16:42:59;12.4;53.4
78438;SHT31;67736;51.978;5.656;2023-02-12T16:45:35;12.4;53.3
78438;SHT31;67736;51.978;5.656;2023-02-12T16:48:17;12.4;53.5
78438;SHT31;67736;51.978;5.656;2023-02-12T16:50:52;12.4;53.5
78438;SHT31;67736;51.978;5.656;2023-02-12T16:53:25;12.4;53.3
78438;SHT31;67736;51.978;5.656;2023-02-12T16:55:56;12.4;53.3
78438;SHT31;67736;51.978;5.656;2023-02-12T16:58:26;12.4;53.6